Port Mellon, Canada
Current Conditions -  °F | °C
As of 12:00 AM on Wednesday 26 Nov 2014 (Local Time) from CYVR Reporting Station
Light Rain Light Rain  
Wind Chill:   Ceiling: 900
Heat Index:   Visibility: 3mi
Dew Point:   Wind: 6mph
Humidity: 93%   Direction: 80°E
Pressure: 30.15"   Gusts: NA
Location:  49.52°N, 123.48°W
Report Text: CYVR 260800Z 08005KT 3SM -RADZ BR FEW004 BKN009 OVC030 06/05 A3015 RMK SF2ST3NS3 SLP210
Loading
Personal Weather Stations






























Interactive Weather Map New forecast layout! Learn more

10-Day Weather Forecast

Advertisements
Track Severe Weather on mobile